sensor_id;sensor_type;location;lat;lon;timestamp;pressure;altitude;pressure_sealevel;temperature;humidity
48204;BME280;33994;50.998;5.864;2024-01-30T00:01:36;102182.66;;;7.02;99.69
48204;BME280;33994;50.998;5.864;2024-01-30T00:04:41;102182.59;;;7.00;99.58
48204;BME280;33994;50.998;5.864;2024-01-30T00:07:44;102184.31;;;6.98;99.76
48204;BME280;33994;50.998;5.864;2024-01-30T00:10:47;102174.72;;;6.96;99.77
48204;BME280;33994;50.998;5.864;2024-01-30T00:13:50;102173.91;;;6.98;99.99
48204;BME280;33994;50.998;5.864;2024-01-30T00:16:53;102164.31;;;6.96;99.95
48204;BME280;33994;50.998;5.864;2024-01-30T00:19:58;102163.44;;;6.95;100.00
48204;BME280;33994;50.998;5.864;2024-01-30T00:23:01;102166.09;;;6.98;100.00
48204;BME280;33994;50.998;5.864;2024-01-30T00:26:04;102171.31;;;7.00;100.00
48204;BME280;33994;50.998;5.864;2024-01-30T00:29:07;102167.88;;;7.01;100.00
48204;BME280;33994;50.998;5.864;2024-01-30T00:32:10;102170.53;;;7.02;99.94
48204;BME280;33994;50.998;5.864;2024-01-30T00:35:15;102160.13;;;7.02;100.00
48204;BME280;33994;50.998;5.864;2024-01-30T00:38:18;102160.13;;;7.02;99.98
48204;BME280;33994;50.998;5.864;2024-01-30T00:41:21;102161.84;;;7.03;100.00
48204;BME280;33994;50.998;5.864;2024-01-30T00:44:24;102159.28;;;7.05;100.00
48204;BME280;33994;50.998;5.864;2024-01-30T00:47:28;102164.47;;;7.03;100.00
48204;BME280;33994;50.998;5.864;2024-01-30T00:50:32;102164.47;;;7.03;100.00
48204;BME280;33994;50.998;5.864;2024-01-30T00:53:35;102154.91;;;7.02;99.94
48204;BME280;33994;50.998;5.864;2024-01-30T00:56:38;102156.66;;;7.03;100.00
48204;BME280;33994;50.998;5.864;2024-01-30T00:59:41;102154.06;;;7.05;100.00
48204;BME280;33994;50.998;5.864;2024-01-30T01:02:45;102151.53;;;7.06;100.00
48204;BME280;33994;50.998;5.864;2024-01-30T01:05:49;102148.94;;;7.08;100.00
48204;BME280;33994;50.998;5.864;2024-01-30T01:08:53;102147.25;;;7.10;100.00
48204;BME280;33994;50.998;5.864;2024-01-30T01:11:56;102145.59;;;7.14;100.00
48204;BME280;33994;50.998;5.864;2024-01-30T01:14:59;102143.06;;;7.17;100.00
48204;BME280;33994;50.998;5.864;2024-01-30T01:18:03;102145.72;;;7.20;100.00
48204;BME280;33994;50.998;5.864;2024-01-30T01:21:08;102142.31;;;7.22;99.95
48204;BME280;33994;50.998;5.864;2024-01-30T01:24:11;102144.13;;;7.26;99.84
48204;BME280;33994;50.998;5.864;2024-01-30T01:27:14;102138.09;;;7.29;99.83
48204;BME280;33994;50.998;5.864;2024-01-30T01:30:18;102136.38;;;7.31;99.69
48204;BME280;33994;50.998;5.864;2024-01-30T01:33:21;102139.09;;;7.36;99.37
48204;BME280;33994;50.998;5.864;2024-01-30T01:36:26;102140.03;;;7.39;99.21
48204;BME280;33994;50.998;5.864;2024-01-30T01:39:29;102133.22;;;7.44;99.11
48204;BME280;33994;50.998;5.864;2024-01-30T01:42:32;102133.28;;;7.47;99.02
48204;BME280;33994;50.998;5.864;2024-01-30T01:45:35;102132.44;;;7.50;98.80
48204;BME280;33994;50.998;5.864;2024-01-30T01:48:38;102134.25;;;7.52;98.46
48204;BME280;33994;50.998;5.864;2024-01-30T01:51:44;102130.81;;;7.55;98.54
48204;BME280;33994;50.998;5.864;2024-01-30T01:54:49;102130.84;;;7.58;98.21
48204;BME280;33994;50.998;5.864;2024-01-30T01:57:52;102130.03;;;7.61;98.18
48204;BME280;33994;50.998;5.864;2024-01-30T02:00:56;102129.19;;;7.62;98.15
48204;BME280;33994;50.998;5.864;2024-01-30T02:04:00;102121.41;;;7.63;98.02
48204;BME280;33994;50.998;5.864;2024-01-30T02:07:05;102123.19;;;7.66;97.69
48204;BME280;33994;50.998;5.864;2024-01-30T02:10:09;102121.44;;;7.65;97.82
48204;BME280;33994;50.998;5.864;2024-01-30T02:13:12;102117.97;;;7.66;97.60
48204;BME280;33994;50.998;5.864;2024-01-30T02:16:15;102118.81;;;7.65;97.67
48204;BME280;33994;50.998;5.864;2024-01-30T02:19:18;102116.28;;;7.66;97.65
48204;BME280;33994;50.998;5.864;2024-01-30T02:22:23;102112.81;;;7.67;97.71
48204;BME280;33994;50.998;5.864;2024-01-30T02:25:31;102106.75;;;7.68;97.77
48204;BME280;33994;50.998;5.864;2024-01-30T02:28:34;102115.47;;;7.70;97.65
48204;BME280;33994;50.998;5.864;2024-01-30T02:31:37;102119.00;;;7.74;97.80
48204;BME280;33994;50.998;5.864;2024-01-30T02:34:40;102106.88;;;7.76;97.79
48204;BME280;33994;50.998;5.864;2024-01-30T02:37:45;102104.31;;;7.79;97.59
48204;BME280;33994;50.998;5.864;2024-01-30T02:40:48;102105.19;;;7.79;97.52
48204;BME280;33994;50.998;5.864;2024-01-30T02:43:51;102102.59;;;7.81;97.65
48204;BME280;33994;50.998;5.864;2024-01-30T02:46:54;102100.09;;;7.86;97.55
48204;BME280;33994;50.998;5.864;2024-01-30T02:49:58;102092.25;;;7.84;97.60
48204;BME280;33994;50.998;5.864;2024-01-30T02:53:02;102100.97;;;7.86;97.61
48204;BME280;33994;50.998;5.864;2024-01-30T02:56:06;102099.25;;;7.88;97.66
48204;BME280;33994;50.998;5.864;2024-01-30T02:59:09;102099.25;;;7.88;97.65
48204;BME280;33994;50.998;5.864;2024-01-30T03:02:13;102098.44;;;7.89;97.68
48204;BME280;33994;50.998;5.864;2024-01-30T03:05:16;102101.91;;;7.91;97.60
48204;BME280;33994;50.998;5.864;2024-01-30T03:08:20;102094.97;;;7.90;97.54
48204;BME280;33994;50.998;5.864;2024-01-30T03:11:23;102094.09;;;7.91;97.73
48204;BME280;33994;50.998;5.864;2024-01-30T03:14:26;102094.97;;;7.90;97.71
48204;BME280;33994;50.998;5.864;2024-01-30T03:17:30;102085.41;;;7.91;97.67
48204;BME280;33994;50.998;5.864;2024-01-30T03:20:33;102090.63;;;7.89;97.71
48204;BME280;33994;50.998;5.864;2024-01-30T03:23:37;102088.03;;;7.91;97.96
48204;BME280;33994;50.998;5.864;2024-01-30T03:26:41;102091.50;;;7.91;97.97
48204;BME280;33994;50.998;5.864;2024-01-30T03:29:44;102085.41;;;7.91;98.17
48204;BME280;33994;50.998;5.864;2024-01-30T03:32:47;102073.31;;;7.94;98.22
48204;BME280;33994;50.998;5.864;2024-01-30T03:35:50;102080.31;;;7.98;98.27
48204;BME280;33994;50.998;5.864;2024-01-30T03:38:55;102072.53;;;8.00;98.34
48204;BME280;33994;50.998;5.864;2024-01-30T03:41:58;102076.91;;;8.02;98.33
48204;BME280;33994;50.998;5.864;2024-01-30T03:45:02;102079.53;;;8.04;98.28
48204;BME280;33994;50.998;5.864;2024-01-30T03:48:06;102072.63;;;8.06;98.22
48204;BME280;33994;50.998;5.864;2024-01-30T03:51:09;102073.50;;;8.07;98.24
48204;BME280;33994;50.998;5.864;2024-01-30T03:54:14;102068.28;;;8.07;98.49
48204;BME280;33994;50.998;5.864;2024-01-30T03:57:17;102069.16;;;8.07;98.69
48204;BME280;33994;50.998;5.864;2024-01-30T04:00:20;102080.47;;;8.08;98.68
48204;BME280;33994;50.998;5.864;2024-01-30T04:03:24;102073.56;;;8.10;98.80
48204;BME280;33994;50.998;5.864;2024-01-30T04:06:27;102073.56;;;8.11;98.87
48204;BME280;33994;50.998;5.864;2024-01-30T04:09:31;102071.00;;;8.13;98.92
48204;BME280;33994;50.998;5.864;2024-01-30T04:12:35;102070.13;;;8.14;99.12
48204;BME280;33994;50.998;5.864;2024-01-30T04:15:38;102063.19;;;8.13;98.96
48204;BME280;33994;50.998;5.864;2024-01-30T04:18:41;102070.13;;;8.14;99.20
48204;BME280;33994;50.998;5.864;2024-01-30T04:21:44;102065.78;;;8.14;99.28
48204;BME280;33994;50.998;5.864;2024-01-30T04:24:49;102065.78;;;8.14;99.25
48204;BME280;33994;50.998;5.864;2024-01-30T04:27:53;102061.44;;;8.13;99.38
48204;BME280;33994;50.998;5.864;2024-01-30T04:30:56;102055.38;;;8.13;99.51
48204;BME280;33994;50.998;5.864;2024-01-30T04:33:59;102059.78;;;8.17;99.46
48204;BME280;33994;50.998;5.864;2024-01-30T04:37:02;102065.00;;;8.18;99.65
48204;BME280;33994;50.998;5.864;2024-01-30T04:40:08;102061.53;;;8.19;99.61
48204;BME280;33994;50.998;5.864;2024-01-30T04:43:10;102068.47;;;8.19;99.55
48204;BME280;33994;50.998;5.864;2024-01-30T04:46:14;102061.56;;;8.21;99.76
48204;BME280;33994;50.998;5.864;2024-01-30T04:49:17;102059.84;;;8.23;99.86
48204;BME280;33994;50.998;5.864;2024-01-30T04:52:20;102062.47;;;8.24;99.71
48204;BME280;33994;50.998;5.864;2024-01-30T04:55:25;102059.03;;;8.27;99.74
48204;BME280;33994;50.998;5.864;2024-01-30T04:58:28;102048.59;;;8.27;99.71
48204;BME280;33994;50.998;5.864;2024-01-30T05:01:31;102053.84;;;8.28;99.86
48204;BME280;33994;50.998;5.864;2024-01-30T05:04:35;102048.69;;;8.33;99.85
48204;BME280;33994;50.998;5.864;2024-01-30T05:07:40;102047.00;;;8.37;99.84
48204;BME280;33994;50.998;5.864;2024-01-30T05:10:45;102051.41;;;8.39;99.67
48204;BME280;33994;50.998;5.864;2024-01-30T05:13:48;102056.63;;;8.41;99.55
48204;BME280;33994;50.998;5.864;2024-01-30T05:16:51;102058.34;;;8.40;99.57
48204;BME280;33994;50.998;5.864;2024-01-30T05:19:54;102046.19;;;8.42;99.60
48204;BME280;33994;50.998;5.864;2024-01-30T05:22:57;102047.16;;;8.47;99.58
48204;BME280;33994;50.998;5.864;2024-01-30T05:26:02;102050.69;;;8.51;99.54
48204;BME280;33994;50.998;5.864;2024-01-30T05:29:06;102042.88;;;8.52;99.50
48204;BME280;33994;50.998;5.864;2024-01-30T05:32:09;102038.56;;;8.55;99.31
48204;BME280;33994;50.998;5.864;2024-01-30T05:35:12;102041.19;;;8.58;99.40
48204;BME280;33994;50.998;5.864;2024-01-30T05:38:16;102050.81;;;8.62;99.24
48204;BME280;33994;50.998;5.864;2024-01-30T05:41:20;102041.25;;;8.62;99.12
48204;BME280;33994;50.998;5.864;2024-01-30T05:44:23;102043.88;;;8.64;99.04
48204;BME280;33994;50.998;5.864;2024-01-30T05:47:26;102036.06;;;8.64;98.95
48204;BME280;33994;50.998;5.864;2024-01-30T05:50:30;102042.16;;;8.64;98.98
48204;BME280;33994;50.998;5.864;2024-01-30T05:53:33;102036.09;;;8.67;98.99
48204;BME280;33994;50.998;5.864;2024-01-30T05:56:37;102042.19;;;8.69;98.95
48204;BME280;33994;50.998;5.864;2024-01-30T05:59:40;102034.41;;;8.72;98.85
48204;BME280;33994;50.998;5.864;2024-01-30T06:02:44;102050.06;;;8.72;98.77
48204;BME280;33994;50.998;5.864;2024-01-30T06:05:47;102044.84;;;8.72;98.75
48204;BME280;33994;50.998;5.864;2024-01-30T06:08:50;102037.88;;;8.71;98.57
48204;BME280;33994;50.998;5.864;2024-01-30T06:11:55;102041.38;;;8.70;98.72
48204;BME280;33994;50.998;5.864;2024-01-30T06:14:58;102039.59;;;8.69;98.86
48204;BME280;33994;50.998;5.864;2024-01-30T06:18:01;102033.50;;;8.68;98.95
48204;BME280;33994;50.998;5.864;2024-01-30T06:21:05;102033.53;;;8.70;98.98
48204;BME280;33994;50.998;5.864;2024-01-30T06:24:08;102031.81;;;8.70;99.07
48204;BME280;33994;50.998;5.864;2024-01-30T06:27:12;102038.75;;;8.71;99.07
48204;BME280;33994;50.998;5.864;2024-01-30T06:30:16;102034.41;;;8.72;99.08
48204;BME280;33994;50.998;5.864;2024-01-30T06:33:19;102041.41;;;8.76;99.12
48204;BME280;33994;50.998;5.864;2024-01-30T06:36:22;102036.19;;;8.76;99.01
48204;BME280;33994;50.998;5.864;2024-01-30T06:39:26;102041.41;;;8.76;99.06
48204;BME280;33994;50.998;5.864;2024-01-30T06:42:31;102038.81;;;8.76;99.03
48204;BME280;33994;50.998;5.864;2024-01-30T06:45:35;102032.72;;;8.75;99.17
48204;BME280;33994;50.998;5.864;2024-01-30T06:48:38;102038.81;;;8.76;99.20
48204;BME280;33994;50.998;5.864;2024-01-30T06:51:41;102042.28;;;8.75;99.17
48204;BME280;33994;50.998;5.864;2024-01-30T06:54:44;102038.81;;;8.74;99.06
48204;BME280;33994;50.998;5.864;2024-01-30T06:57:49;102048.31;;;8.72;99.11
48204;BME280;33994;50.998;5.864;2024-01-30T07:00:52;102055.31;;;8.75;99.28
48204;BME280;33994;50.998;5.864;2024-01-30T07:03:55;102065.75;;;8.75;99.37
48204;BME280;33994;50.998;5.864;2024-01-30T07:06:58;102070.97;;;8.76;99.29
48204;BME280;33994;50.998;5.864;2024-01-30T07:10:02;102057.06;;;8.76;99.39
48204;BME280;33994;50.998;5.864;2024-01-30T07:13:06;102066.63;;;8.74;99.43
48204;BME280;33994;50.998;5.864;2024-01-30T07:16:09;102070.09;;;8.74;99.71
48204;BME280;33994;50.998;5.864;2024-01-30T07:19:12;102068.38;;;8.75;99.61
48204;BME280;33994;50.998;5.864;2024-01-30T07:22:16;102071.84;;;8.75;99.72
48204;BME280;33994;50.998;5.864;2024-01-30T07:25:19;102074.44;;;8.74;99.77
48204;BME280;33994;50.998;5.864;2024-01-30T07:28:23;102071.84;;;8.75;99.80
48204;BME280;33994;50.998;5.864;2024-01-30T07:31:26;102084.03;;;8.76;99.91
48204;BME280;33994;50.998;5.864;2024-01-30T07:34:29;102084.94;;;8.77;100.00
48204;BME280;33994;50.998;5.864;2024-01-30T07:37:33;102100.56;;;8.77;99.96
48204;BME280;33994;50.998;5.864;2024-01-30T07:40:36;102105.78;;;8.77;100.00
48204;BME280;33994;50.998;5.864;2024-01-30T07:43:42;102093.63;;;8.79;99.88
48204;BME280;33994;50.998;5.864;2024-01-30T07:46:46;102098.88;;;8.81;99.97
48204;BME280;33994;50.998;5.864;2024-01-30T07:49:49;102091.94;;;8.81;99.66
48204;BME280;33994;50.998;5.864;2024-01-30T07:52:52;102103.19;;;8.80;99.82
48204;BME280;33994;50.998;5.864;2024-01-30T07:55:55;102111.06;;;8.83;99.84
48204;BME280;33994;50.998;5.864;2024-01-30T07:59:00;102131.94;;;8.83;99.83
48204;BME280;33994;50.998;5.864;2024-01-30T08:02:03;102125.84;;;8.84;99.74
48204;BME280;33994;50.998;5.864;2024-01-30T08:05:07;102123.25;;;8.84;99.80
48204;BME280;33994;50.998;5.864;2024-01-30T08:08:10;102136.28;;;8.84;99.53
48204;BME280;33994;50.998;5.864;2024-01-30T08:11:14;102148.50;;;8.87;99.66
48204;BME280;33994;50.998;5.864;2024-01-30T08:14:19;102163.28;;;8.86;99.49
48204;BME280;33994;50.998;5.864;2024-01-30T08:17:21;102158.06;;;8.86;99.46
48204;BME280;33994;50.998;5.864;2024-01-30T08:20:25;102156.38;;;8.88;99.64
48204;BME280;33994;50.998;5.864;2024-01-30T08:23:28;102165.03;;;8.87;99.56
48204;BME280;33994;50.998;5.864;2024-01-30T08:26:31;102170.31;;;8.89;99.43
48204;BME280;33994;50.998;5.864;2024-01-30T08:29:35;102164.22;;;8.90;99.49
48204;BME280;33994;50.998;5.864;2024-01-30T08:32:38;102170.31;;;8.92;99.42
48204;BME280;33994;50.998;5.864;2024-01-30T08:35:42;102160.78;;;8.92;99.31
48204;BME280;33994;50.998;5.864;2024-01-30T08:38:45;102159.91;;;8.93;99.28
48204;BME280;33994;50.998;5.864;2024-01-30T08:41:48;102167.78;;;8.96;99.13
48204;BME280;33994;50.998;5.864;2024-01-30T08:44:52;102162.56;;;8.96;99.10
48204;BME280;33994;50.998;5.864;2024-01-30T08:47:56;102164.31;;;8.97;99.17
48204;BME280;33994;50.998;5.864;2024-01-30T08:50:59;102172.16;;;8.97;99.10
48204;BME280;33994;50.998;5.864;2024-01-30T08:54:02;102161.72;;;8.99;99.31
48204;BME280;33994;50.998;5.864;2024-01-30T08:57:05;102166.09;;;9.03;99.28
48204;BME280;33994;50.998;5.864;2024-01-30T09:00:11;102160.06;;;9.06;99.13
48204;BME280;33994;50.998;5.864;2024-01-30T09:03:14;102167.97;;;9.12;99.05
48204;BME280;33994;50.998;5.864;2024-01-30T09:06:18;102163.69;;;9.15;99.00
48204;BME280;33994;50.998;5.864;2024-01-30T09:09:21;102171.56;;;9.20;98.91
48204;BME280;33994;50.998;5.864;2024-01-30T09:12:24;102175.91;;;9.21;98.65
48204;BME280;33994;50.998;5.864;2024-01-30T09:15:28;102174.22;;;9.23;98.71
48204;BME280;33994;50.998;5.864;2024-01-30T09:18:31;102190.78;;;9.25;98.66
48204;BME280;33994;50.998;5.864;2024-01-30T09:21:34;102178.66;;;9.27;98.51
48204;BME280;33994;50.998;5.864;2024-01-30T09:24:38;102188.22;;;9.28;98.66
48204;BME280;33994;50.998;5.864;2024-01-30T09:27:41;102182.16;;;9.31;98.62
48204;BME280;33994;50.998;5.864;2024-01-30T09:30:46;102182.19;;;9.34;98.69
48204;BME280;33994;50.998;5.864;2024-01-30T09:33:49;102188.31;;;9.36;98.57
48204;BME280;33994;50.998;5.864;2024-01-30T09:36:52;102203.16;;;9.40;98.51
48204;BME280;33994;50.998;5.864;2024-01-30T09:39:55;102194.50;;;9.42;98.63
48204;BME280;33994;50.998;5.864;2024-01-30T09:42:59;102200.59;;;9.44;98.29
48204;BME280;33994;50.998;5.864;2024-01-30T09:46:05;102198.88;;;9.46;98.25
48204;BME280;33994;50.998;5.864;2024-01-30T09:49:09;102206.78;;;9.51;98.20
48204;BME280;33994;50.998;5.864;2024-01-30T09:52:12;102212.91;;;9.55;98.08
48204;BME280;33994;50.998;5.864;2024-01-30T09:55:15;102200.75;;;9.58;98.05
48204;BME280;33994;50.998;5.864;2024-01-30T09:58:18;102214.72;;;9.62;97.96
48204;BME280;33994;50.998;5.864;2024-01-30T10:01:23;102205.16;;;9.64;97.95
48204;BME280;33994;50.998;5.864;2024-01-30T10:04:26;102195.63;;;9.66;98.03
48204;BME280;33994;50.998;5.864;2024-01-30T10:07:29;102200.88;;;9.69;98.07
48204;BME280;33994;50.998;5.864;2024-01-30T10:10:33;102200.00;;;9.71;98.06
48204;BME280;33994;50.998;5.864;2024-01-30T10:13:36;102208.81;;;9.77;98.17
48204;BME280;33994;50.998;5.864;2024-01-30T10:16:40;102199.25;;;9.80;98.02
48204;BME280;33994;50.998;5.864;2024-01-30T10:19:43;102208.00;;;9.85;98.10
48204;BME280;33994;50.998;5.864;2024-01-30T10:22:47;102203.69;;;9.90;98.02
48204;BME280;33994;50.998;5.864;2024-01-30T10:25:51;102210.69;;;9.94;97.97
48204;BME280;33994;50.998;5.864;2024-01-30T10:28:54;102210.78;;;10.01;98.14
48204;BME280;33994;50.998;5.864;2024-01-30T10:31:59;102214.28;;;10.06;98.11
48204;BME280;33994;50.998;5.864;2024-01-30T10:35:02;102210.88;;;10.11;97.86
48204;BME280;33994;50.998;5.864;2024-01-30T10:38:07;102212.66;;;10.17;97.84
48204;BME280;33994;50.998;5.864;2024-01-30T10:41:15;102213.56;;;10.19;97.64
48204;BME280;33994;50.998;5.864;2024-01-30T10:44:22;102208.38;;;10.22;97.58
48204;BME280;33994;50.998;5.864;2024-01-30T10:47:28;102210.97;;;10.25;97.43
48204;BME280;33994;50.998;5.864;2024-01-30T10:50:32;102213.63;;;10.28;97.41
48204;BME280;33994;50.998;5.864;2024-01-30T10:53:36;102218.88;;;10.31;97.41
48204;BME280;33994;50.998;5.864;2024-01-30T10:56:39;102220.63;;;10.32;97.33
48204;BME280;33994;50.998;5.864;2024-01-30T10:59:44;102214.56;;;10.35;97.50
48204;BME280;33994;50.998;5.864;2024-01-30T11:02:49;102225.91;;;10.38;97.52
48204;BME280;33994;50.998;5.864;2024-01-30T11:05:52;102224.19;;;10.37;97.58
48204;BME280;33994;50.998;5.864;2024-01-30T11:09:02;102234.63;;;10.37;97.66
48204;BME280;33994;50.998;5.864;2024-01-30T11:12:06;102231.13;;;10.37;97.70
48204;BME280;33994;50.998;5.864;2024-01-30T11:15:16;102230.25;;;10.36;97.68
48204;BME280;33994;50.998;5.864;2024-01-30T11:18:29;102236.34;;;10.35;97.93
48204;BME280;33994;50.998;5.864;2024-01-30T11:21:32;102230.25;;;10.36;97.94
48204;BME280;33994;50.998;5.864;2024-01-30T11:24:41;102231.13;;;10.34;98.21
48204;BME280;33994;50.998;5.864;2024-01-30T11:27:45;102220.63;;;10.32;98.39
48204;BME280;33994;50.998;5.864;2024-01-30T11:30:49;102230.22;;;10.32;98.51
48204;BME280;33994;50.998;5.864;2024-01-30T11:33:55;102235.47;;;10.33;98.94
48204;BME280;33994;50.998;5.864;2024-01-30T11:37:02;102226.75;;;10.34;99.36
48204;BME280;33994;50.998;5.864;2024-01-30T11:40:07;102231.13;;;10.35;99.24
48204;BME280;33994;50.998;5.864;2024-01-30T11:43:11;102232.00;;;10.36;99.39
48204;BME280;33994;50.998;5.864;2024-01-30T11:46:14;102226.75;;;10.34;99.45
48204;BME280;33994;50.998;5.864;2024-01-30T11:49:21;102225.88;;;10.35;99.71
48204;BME280;33994;50.998;5.864;2024-01-30T11:52:24;102225.03;;;10.33;99.76
48204;BME280;33994;50.998;5.864;2024-01-30T11:55:29;102231.09;;;10.32;100.00
48204;BME280;33994;50.998;5.864;2024-01-30T11:58:32;102225.03;;;10.33;99.98
48204;BME280;33994;50.998;5.864;2024-01-30T12:01:35;102224.97;;;10.30;100.00
48204;BME280;33994;50.998;5.864;2024-01-30T12:04:40;102225.81;;;10.29;100.00
48204;BME280;33994;50.998;5.864;2024-01-30T12:07:44;102231.06;;;10.26;100.00
48204;BME280;33994;50.998;5.864;2024-01-30T12:10:55;102221.47;;;10.27;100.00
48204;BME280;33994;50.998;5.864;2024-01-30T12:13:58;102221.44;;;10.25;100.00
48204;BME280;33994;50.998;5.864;2024-01-30T12:17:02;102224.91;;;10.22;100.00
48204;BME280;33994;50.998;5.864;2024-01-30T12:20:07;102223.16;;;10.20;100.00
48204;BME280;33994;50.998;5.864;2024-01-30T12:23:11;102221.41;;;10.19;100.00
48204;BME280;33994;50.998;5.864;2024-01-30T12:26:15;102224.00;;;10.19;100.00
48204;BME280;33994;50.998;5.864;2024-01-30T12:29:20;102230.09;;;10.18;100.00
48204;BME280;33994;50.998;5.864;2024-01-30T12:32:23;102232.69;;;10.15;100.00
48204;BME280;33994;50.998;5.864;2024-01-30T12:35:28;102230.91;;;10.14;100.00
48204;BME280;33994;50.998;5.864;2024-01-30T12:38:31;102237.94;;;10.15;100.00
48204;BME280;33994;50.998;5.864;2024-01-30T12:41:34;102238.75;;;10.14;100.00
48204;BME280;33994;50.998;5.864;2024-01-30T12:44:38;102237.88;;;10.12;100.00
48204;BME280;33994;50.998;5.864;2024-01-30T12:47:41;102239.59;;;10.10;100.00
48204;BME280;33994;50.998;5.864;2024-01-30T12:50:46;102248.31;;;10.09;100.00
48204;BME280;33994;50.998;5.864;2024-01-30T12:53:49;102250.06;;;10.07;100.00
48204;BME280;33994;50.998;5.864;2024-01-30T12:56:52;102258.72;;;10.06;100.00
48204;BME280;33994;50.998;5.864;2024-01-30T12:59:55;102254.38;;;10.03;100.00
48204;BME280;33994;50.998;5.864;2024-01-30T13:02:58;102263.91;;;10.03;100.00
48204;BME280;33994;50.998;5.864;2024-01-30T13:06:03;102259.56;;;10.02;100.00
48204;BME280;33994;50.998;5.864;2024-01-30T13:09:06;102263.91;;;10.03;100.00
48204;BME280;33994;50.998;5.864;2024-01-30T13:12:09;102256.94;;;10.02;100.00
48204;BME280;33994;50.998;5.864;2024-01-30T13:15:13;102259.59;;;10.05;100.00
48204;BME280;33994;50.998;5.864;2024-01-30T13:18:16;102262.22;;;10.06;100.00
48204;BME280;33994;50.998;5.864;2024-01-30T13:21:20;102263.13;;;10.08;100.00
48204;BME280;33994;50.998;5.864;2024-01-30T13:24:23;102269.25;;;10.12;100.00
48204;BME280;33994;50.998;5.864;2024-01-30T13:27:27;102269.28;;;10.15;100.00
48204;BME280;33994;50.998;5.864;2024-01-30T13:30:30;102274.53;;;10.15;100.00
48204;BME280;33994;50.998;5.864;2024-01-30T13:33:33;102272.78;;;10.17;100.00
48204;BME280;33994;50.998;5.864;2024-01-30T13:36:37;102285.00;;;10.18;100.00
48204;BME280;33994;50.998;5.864;2024-01-30T13:39:40;102280.66;;;10.18;100.00
48204;BME280;33994;50.998;5.864;2024-01-30T13:42:43;102284.13;;;10.17;99.90
48204;BME280;33994;50.998;5.864;2024-01-30T13:45:47;102287.59;;;10.18;99.90
48204;BME280;33994;50.998;5.864;2024-01-30T13:48:50;102292.81;;;10.15;98.81
48204;BME280;33994;50.998;5.864;2024-01-30T13:51:55;102286.66;;;10.10;97.43
48204;BME280;33994;50.998;5.864;2024-01-30T13:54:58;102286.66;;;10.07;96.59
48204;BME280;33994;50.998;5.864;2024-01-30T13:58:01;102294.41;;;10.01;95.18
48204;BME280;33994;50.998;5.864;2024-01-30T14:01:04;102296.97;;;9.96;94.43
48204;BME280;33994;50.998;5.864;2024-01-30T14:04:07;102292.53;;;9.90;93.69
48204;BME280;33994;50.998;5.864;2024-01-30T14:07:12;102302.97;;;9.87;93.12
48204;BME280;33994;50.998;5.864;2024-01-30T14:10:15;102295.94;;;9.83;92.91
48204;BME280;33994;50.998;5.864;2024-01-30T14:13:17;102297.63;;;9.78;91.74
48204;BME280;33994;50.998;5.864;2024-01-30T14:16:21;102302.81;;;9.75;91.03
48204;BME280;33994;50.998;5.864;2024-01-30T14:19:24;102305.38;;;9.72;90.33
48204;BME280;33994;50.998;5.864;2024-01-30T14:22:28;102304.50;;;9.70;89.84
48204;BME280;33994;50.998;5.864;2024-01-30T14:25:31;102312.31;;;9.67;88.82
48204;BME280;33994;50.998;5.864;2024-01-30T14:28:34;102318.41;;;9.67;88.60
48204;BME280;33994;50.998;5.864;2024-01-30T14:31:38;102317.53;;;9.67;88.38
48204;BME280;33994;50.998;5.864;2024-01-30T14:34:41;102324.50;;;9.65;87.49
48204;BME280;33994;50.998;5.864;2024-01-30T14:37:45;102340.13;;;9.63;87.50
48204;BME280;33994;50.998;5.864;2024-01-30T14:40:49;102340.97;;;9.61;87.10
48204;BME280;33994;50.998;5.864;2024-01-30T14:43:52;102350.53;;;9.59;86.25
48204;BME280;33994;50.998;5.864;2024-01-30T14:46:55;102343.53;;;9.58;86.12
48204;BME280;33994;50.998;5.864;2024-01-30T14:49:58;102352.22;;;9.57;85.78
48204;BME280;33994;50.998;5.864;2024-01-30T14:53:04;102355.72;;;9.57;85.73
48204;BME280;33994;50.998;5.864;2024-01-30T14:56:07;102351.34;;;9.55;85.19
48204;BME280;33994;50.998;5.864;2024-01-30T14:59:10;102358.31;;;9.54;84.86
48204;BME280;33994;50.998;5.864;2024-01-30T15:02:14;102366.09;;;9.53;84.35
48204;BME280;33994;50.998;5.864;2024-01-30T15:05:17;102369.56;;;9.52;84.24
48204;BME280;33994;50.998;5.864;2024-01-30T15:08:21;102375.66;;;9.51;83.49
48204;BME280;33994;50.998;5.864;2024-01-30T15:11:25;102373.88;;;9.48;83.49
48204;BME280;33994;50.998;5.864;2024-01-30T15:14:28;102385.13;;;9.42;82.37
48204;BME280;33994;50.998;5.864;2024-01-30T15:17:31;102391.19;;;9.41;82.02
48204;BME280;33994;50.998;5.864;2024-01-30T15:20:34;102380.66;;;9.37;81.68
48204;BME280;33994;50.998;5.864;2024-01-30T15:23:39;102393.72;;;9.35;81.40
48204;BME280;33994;50.998;5.864;2024-01-30T15:26:42;102396.28;;;9.32;81.01
48204;BME280;33994;50.998;5.864;2024-01-30T15:29:45;102390.19;;;9.32;80.29
48204;BME280;33994;50.998;5.864;2024-01-30T15:32:48;102401.50;;;9.32;80.43
48204;BME280;33994;50.998;5.864;2024-01-30T15:35:51;102416.25;;;9.30;80.01
48204;BME280;33994;50.998;5.864;2024-01-30T15:38:56;102409.22;;;9.26;79.43
48204;BME280;33994;50.998;5.864;2024-01-30T15:41:59;102423.97;;;9.24;79.29
48204;BME280;33994;50.998;5.864;2024-01-30T15:45:03;102416.94;;;9.20;79.48
48204;BME280;33994;50.998;5.864;2024-01-30T15:48:07;102425.63;;;9.19;78.29
48204;BME280;33994;50.998;5.864;2024-01-30T15:51:10;102436.91;;;9.18;78.08
48204;BME280;33994;50.998;5.864;2024-01-30T15:54:14;102426.47;;;9.18;78.51
48204;BME280;33994;50.998;5.864;2024-01-30T15:57:18;102433.41;;;9.16;78.69
48204;BME280;33994;50.998;5.864;2024-01-30T16:00:21;102436.84;;;9.15;78.67
48204;BME280;33994;50.998;5.864;2024-01-30T16:03:24;102445.59;;;9.15;78.78
48204;BME280;33994;50.998;5.864;2024-01-30T16:06:27;102454.25;;;9.13;79.04